Time;durP1;ratioP1;P1;durP2;ratioP2;P2;SDS_P1;SDS_P2;PMS_P1;PMS_P2;Temp;Humidity;BMP_temperature;BMP_pressure;BME280_temperature;BME280_humidity;BME280_pressure;Samples;Min_cycle;Max_cycle;Signal;HPM_P1;HPM_P2
2023/10/02 00:01:07;;;;;;;17.48;8.75;;;16.40;99.90;;;;;;4969306;28;20407;-79
2023/10/02 00:03:33;;;;;;;19.63;9.43;;;16.30;99.90;;;;;;4970945;28;20438;-81
2023/10/02 00:05:59;;;;;;;16.60;8.25;;;16.30;99.90;;;;;;4954169;28;20046;-79
2023/10/02 00:08:31;;;;;;;18.55;7.88;;;16.20;99.90;;;;;;4972021;28;20092;-80
2023/10/02 00:11:05;;;;;;;14.95;7.25;;;16.30;99.90;;;;;;4949626;28;20037;-79
2023/10/02 00:13:32;;;;;;;18.75;9.13;;;16.30;99.90;;;;;;4956414;28;20031;-79
2023/10/02 00:15:58;;;;;;;16.85;8.90;;;16.30;99.90;;;;;;4969328;28;20755;-78
2023/10/02 00:18:27;;;;;;;19.35;8.70;;;16.20;99.90;;;;;;4987255;28;20490;-79
2023/10/02 00:21:17;;;;;;;15.52;7.75;;;16.20;99.90;;;;;;4973069;28;20502;-80
2023/10/02 00:23:59;;;;;;;15.88;8.00;;;16.10;99.90;;;;;;4974753;28;20041;-78
2023/10/02 00:26:25;;;;;;;18.10;8.87;;;16.10;99.90;;;;;;4969886;28;20509;-79
2023/10/02 00:28:50;;;;;;;18.77;9.02;;;16.10;99.90;;;;;;4953303;28;20274;-78
2023/10/02 00:31:32;;;;;;;19.33;9.55;;;16.00;99.90;;;;;;4950560;28;20033;-78
2023/10/02 00:33:59;;;;;;;18.05;7.88;;;16.00;99.90;;;;;;4984871;28;20037;-79
2023/10/02 00:36:25;;;;;;;23.95;9.02;;;16.00;99.90;;;;;;4986095;28;20109;-79
2023/10/02 00:38:51;;;;;;;13.80;7.55;;;16.20;99.90;;;;;;4953084;28;20034;-79
2023/10/02 00:41:16;;;;;;;14.55;7.05;;;16.10;99.90;;;;;;4969853;28;20498;-79
2023/10/02 00:43:45;;;;;;;15.48;7.90;;;16.10;99.90;;;;;;4968717;28;20039;-79
2023/10/02 00:46:23;;;;;;;19.80;9.02;;;16.10;99.90;;;;;;4969986;28;20036;-78
2023/10/02 00:48:50;;;;;;;16.65;7.43;;;16.10;99.90;;;;;;4956968;28;20109;-78
2023/10/02 00:51:15;;;;;;;17.77;8.10;;;16.20;99.90;;;;;;4984227;28;20107;-78
2023/10/02 00:53:46;;;;;;;19.52;9.27;;;16.20;99.90;;;;;;4983375;28;20033;-79
2023/10/02 00:56:23;;;;;;;17.42;8.75;;;16.00;99.90;;;;;;4967789;28;20054;-79
2023/10/02 00:59:00;;;;;;;17.77;7.65;;;15.90;99.90;;;;;;4985268;28;20166;-78
2023/10/02 01:01:26;;;;;;;15.82;8.65;;;15.80;99.90;;;;;;4933760;28;20507;-79
2023/10/02 01:04:10;;;;;;;16.25;7.00;;;16.00;99.90;;;;;;4947819;28;20031;-78
2023/10/02 01:10:06;;;;;;;21.10;8.98;;;16.00;99.90;;;;;;4962920;28;20035;-79
2023/10/02 01:12:38;;;;;;;17.43;8.10;;;15.90;99.90;;;;;;4968979;28;20041;-80
2023/10/02 01:15:09;;;;;;;14.88;7.22;;;15.80;99.90;;;;;;4984131;28;20165;-79
2023/10/02 01:17:34;;;;;;;15.35;7.80;;;15.90;99.90;;;;;;4939944;28;20050;-79
2023/10/02 01:20:08;;;;;;;17.23;8.00;;;16.00;99.90;;;;;;4962484;28;20035;-78
2023/10/02 01:22:38;;;;;;;16.40;7.72;;;15.90;99.90;;;;;;4970091;28;20042;-79
2023/10/02 01:25:14;;;;;;;15.57;8.27;;;16.00;99.90;;;;;;4966120;28;20049;-79
2023/10/02 01:27:50;;;;;;;17.40;7.40;;;16.00;99.90;;;;;;4946587;28;20118;-78
2023/10/02 01:30:18;;;;;;;16.08;7.63;;;15.80;99.90;;;;;;4951933;28;20039;-79
2023/10/02 01:33:12;;;;;;;18.08;8.43;;;16.00;99.90;;;;;;4967937;28;20097;-78
2023/10/02 01:35:48;;;;;;;17.65;8.73;;;15.90;99.90;;;;;;4954072;28;20069;-79
2023/10/02 01:38:16;;;;;;;17.73;8.38;;;15.80;99.90;;;;;;4954698;28;20088;-78
2023/10/02 01:40:48;;;;;;;11.40;5.88;;;15.60;99.90;;;;;;4969314;28;20450;-79
2023/10/02 01:43:14;;;;;;;16.27;9.13;;;15.70;99.90;;;;;;4965296;28;20026;-79
2023/10/02 01:45:43;;;;;;;13.63;6.72;;;15.70;99.90;;;;;;4968786;28;20039;-79
2023/10/02 01:48:36;;;;;;;19.85;7.82;;;15.80;99.90;;;;;;4966347;28;20034;-79
2023/10/02 01:53:45;;;;;;;19.15;8.20;;;15.90;99.90;;;;;;4969216;28;20776;-79
2023/10/02 01:56:11;;;;;;;18.38;7.93;;;15.90;99.90;;;;;;4950345;28;20022;-80
2023/10/02 01:58:39;;;;;;;15.93;7.72;;;15.70;99.90;;;;;;4936203;28;20430;-78
2023/10/02 02:01:06;;;;;;;18.40;8.23;;;15.60;99.90;;;;;;4946256;28;20039;-78
2023/10/02 02:03:33;;;;;;;15.52;6.63;;;15.50;99.90;;;;;;4962162;28;20045;-80
2023/10/02 02:06:08;;;;;;;13.98;7.30;;;15.70;99.90;;;;;;4965920;28;20704;-79
2023/10/02 02:08:37;;;;;;;14.18;6.80;;;15.60;99.90;;;;;;4967474;28;20569;-78
2023/10/02 02:11:24;;;;;;;16.10;7.85;;;15.60;99.90;;;;;;4969831;28;20572;-78
2023/10/02 02:13:51;;;;;;;14.10;7.25;;;15.60;99.90;;;;;;4938755;28;20070;-78
2023/10/02 02:16:21;;;;;;;16.60;7.47;;;15.50;99.90;;;;;;4966793;28;20034;-78
2023/10/02 02:18:48;;;;;;;13.75;6.57;;;15.60;99.90;;;;;;4971266;28;20058;-79
2023/10/02 02:21:15;;;;;;;18.17;9.15;;;15.60;99.90;;;;;;4952010;28;20506;-78
2023/10/02 02:23:41;;;;;;;14.82;6.63;;;15.60;99.90;;;;;;4952248;28;20034;-78
2023/10/02 02:26:08;;;;;;;19.63;7.95;;;15.50;99.90;;;;;;4966715;28;20499;-78
2023/10/02 02:28:43;;;;;;;17.15;7.95;;;15.60;99.90;;;;;;4971918;28;20631;-78
2023/10/02 02:34:16;;;;;;;13.43;7.85;;;15.50;99.90;;;;;;4966845;28;20065;-78
2023/10/02 02:36:42;;;;;;;16.33;7.53;;;15.40;99.90;;;;;;4971284;28;20034;-78
2023/10/02 02:39:17;;;;;;;17.63;8.65;;;15.60;99.90;;;;;;4952301;28;20532;-78
2023/10/02 02:42:08;;;;;;;14.20;6.50;;;15.50;99.90;;;;;;4966138;28;20401;-79
2023/10/02 02:44:40;;;;;;;18.45;8.32;;;15.50;99.90;;;;;;4966454;28;20084;-79
2023/10/02 02:47:09;;;;;;;15.38;7.20;;;15.70;99.90;;;;;;4968294;28;20061;-79
2023/10/02 02:50:00;;;;;;;17.52;8.15;;;15.60;99.90;;;;;;4972808;28;20398;-79
2023/10/02 02:52:32;;;;;;;18.92;7.80;;;15.60;99.90;;;;;;4974855;28;20030;-79
2023/10/02 02:54:59;;;;;;;15.85;7.68;;;15.50;99.90;;;;;;4975194;28;20126;-79
2023/10/02 02:57:28;;;;;;;18.85;9.85;;;15.50;99.90;;;;;;4971490;28;20561;-79
2023/10/02 03:00:29;;;;;;;14.60;7.50;;;15.40;99.90;;;;;;4967886;28;20447;-80
2023/10/02 03:02:46;;;;;;;19.08;8.70;;;15.40;99.90;;;;;;4977164;28;20391;-79
2023/10/02 03:05:16;;;;;;;16.10;8.18;;;15.40;99.90;;;;;;4952348;28;20034;-80
2023/10/02 03:07:46;;;;;;;18.75;9.38;;;15.40;99.90;;;;;;4957208;28;20034;-78
2023/10/02 03:10:16;;;;;;;17.45;8.15;;;15.40;99.90;;;;;;4954947;28;20040;-79
2023/10/02 03:12:48;;;;;;;15.43;7.75;;;15.40;99.90;;;;;;4952703;28;20030;-78
2023/10/02 03:15:45;;;;;;;17.80;7.15;;;15.40;99.90;;;;;;4972166;28;20117;-79
2023/10/02 03:18:30;;;;;;;18.10;9.43;;;15.30;99.90;;;;;;4985913;28;20026;-79
2023/10/02 03:20:59;;;;;;;16.98;7.65;;;15.40;99.90;;;;;;4975285;28;20128;-80
2023/10/02 03:23:29;;;;;;;18.35;7.70;;;15.50;99.90;;;;;;4957108;28;20053;-79
2023/10/02 03:25:59;;;;;;;18.92;8.95;;;15.50;99.90;;;;;;4973880;28;20660;-79
2023/10/02 03:28:27;;;;;;;15.23;7.80;;;15.50;99.90;;;;;;4972583;28;20026;-79
2023/10/02 03:30:53;;;;;;;18.85;9.05;;;15.50;99.90;;;;;;4973279;28;20490;-80
2023/10/02 03:33:20;;;;;;;14.05;7.53;;;15.50;99.90;;;;;;4954930;28;20037;-79
2023/10/02 03:36:03;;;;;;;18.75;8.13;;;15.50;99.90;;;;;;4964976;28;20057;-80
2023/10/02 03:38:32;;;;;;;18.05;9.27;;;15.50;99.90;;;;;;4972029;28;20084;-79
2023/10/02 03:40:59;;;;;;;15.15;7.85;;;15.50;99.90;;;;;;4987088;28;20509;-79
2023/10/02 03:46:35;;;;;;;19.38;8.85;;;15.40;99.90;;;;;;4946563;28;20082;-80
2023/10/02 03:49:04;;;;;;;17.33;8.88;;;15.50;99.90;;;;;;4991076;28;20422;-79
2023/10/02 03:51:36;;;;;;;17.17;7.50;;;15.50;99.90;;;;;;4967716;28;20033;-79
2023/10/02 03:54:17;;;;;;;14.95;7.47;;;15.50;99.90;;;;;;4972255;28;20038;-79
2023/10/02 03:56:49;;;;;;;15.07;7.07;;;15.50;99.90;;;;;;4991055;28;20085;-79
2023/10/02 03:59:23;;;;;;;16.27;7.72;;;15.50;99.90;;;;;;4956396;28;20487;-79
2023/10/02 04:01:50;;;;;;;17.50;9.07;;;15.50;99.90;;;;;;4954986;28;20038;-79
2023/10/02 04:04:21;;;;;;;12.43;6.80;;;15.50;99.90;;;;;;4989045;28;20038;-79
2023/10/02 04:06:50;;;;;;;13.48;6.85;;;15.50;99.90;;;;;;4973377;28;20049;-79
2023/10/02 04:09:23;;;;;;;16.42;7.53;;;15.50;99.90;;;;;;4953079;28;20034;-79
2023/10/02 04:11:50;;;;;;;16.17;8.20;;;15.50;99.90;;;;;;4969363;28;20609;-79
2023/10/02 04:14:23;;;;;;;18.25;8.75;;;15.40;99.90;;;;;;4952573;28;20386;-80
2023/10/02 04:16:49;;;;;;;17.05;7.97;;;15.40;99.90;;;;;;4956340;28;20110;-79
2023/10/02 04:19:16;;;;;;;20.27;9.48;;;15.40;99.90;;;;;;4971242;28;20061;-79
2023/10/02 04:21:47;;;;;;;18.52;8.30;;;15.40;99.90;;;;;;4951540;28;20045;-79
2023/10/02 04:24:13;;;;;;;13.43;6.75;;;15.30;99.90;;;;;;4983896;28;20049;-79
2023/10/02 04:26:41;;;;;;;19.45;8.73;;;15.40;99.90;;;;;;4988714;28;20037;-79
2023/10/02 04:29:15;;;;;;;16.30;8.52;;;15.40;99.90;;;;;;4970724;28;20085;-79
2023/10/02 04:31:44;;;;;;;22.75;9.00;;;15.40;99.90;;;;;;4954118;28;20406;-79
2023/10/02 04:34:29;;;;;;;15.82;8.15;;;15.30;99.90;;;;;;4966026;28;20510;-79
2023/10/02 04:36:55;;;;;;;22.25;9.10;;;15.30;99.90;;;;;;4968023;28;20503;-80
2023/10/02 04:42:25;;;;;;;19.40;8.88;;;15.30;99.90;;;;;;4950843;28;20143;-80
2023/10/02 04:44:56;;;;;;;17.40;8.73;;;15.40;99.90;;;;;;4972086;28;20065;-80
2023/10/02 04:47:23;;;;;;;18.65;9.30;;;15.30;99.90;;;;;;4955992;28;20034;-80
2023/10/02 04:55:24;;;;;;;21.45;9.48;;;15.40;99.90;;;;;;4979307;28;20121;-79
2023/10/02 04:57:56;;;;;;;16.08;8.02;;;15.40;99.90;;;;;;4969950;28;20041;-80
2023/10/02 05:00:33;;;;;;;17.88;8.05;;;15.40;99.90;;;;;;4955855;28;20731;-80
2023/10/02 05:03:25;;;;;;;14.25;7.65;;;15.40;99.90;;;;;;4986482;28;20035;-79
2023/10/02 05:05:53;;;;;;;15.90;7.88;;;15.40;99.90;;;;;;4971322;28;20466;-79
2023/10/02 05:08:29;;;;;;;17.42;9.18;;;15.40;99.90;;;;;;4984021;28;20076;-79
2023/10/02 05:11:05;;;;;;;15.93;8.07;;;15.40;99.90;;;;;;4967847;28;21595;-79
2023/10/02 05:16:19;;;;;;;18.42;7.85;;;15.40;99.90;;;;;;4973045;28;20041;-79
2023/10/02 05:18:47;;;;;;;16.90;8.60;;;15.40;99.90;;;;;;4984498;28;20038;-79
2023/10/02 05:21:16;;;;;;;23.00;9.35;;;15.30;99.90;;;;;;4953527;28;20125;-78
2023/10/02 05:23:49;;;;;;;18.33;8.35;;;15.30;99.90;;;;;;4956228;28;20504;-79
2023/10/02 05:26:31;;;;;;;18.52;7.55;;;15.40;99.90;;;;;;4951037;28;20041;-79
2023/10/02 05:28:57;;;;;;;18.35;8.10;;;15.30;99.90;;;;;;4956458;28;20041;-79
2023/10/02 05:31:22;;;;;;;17.13;8.07;;;15.40;99.90;;;;;;4970407;28;20395;-80
2023/10/02 05:33:48;;;;;;;21.10;8.75;;;15.30;99.90;;;;;;4988707;28;20413;-79
2023/10/02 05:36:21;;;;;;;21.40;9.13;;;15.30;99.90;;;;;;4955193;28;20038;-79
2023/10/02 05:39:16;;;;;;;17.33;8.00;;;15.30;99.90;;;;;;4956905;28;20109;-79
2023/10/02 05:41:44;;;;;;;26.50;9.30;;;15.20;99.90;;;;;;4973324;28;20121;-79
2023/10/02 05:44:20;;;;;;;21.17;8.95;;;15.30;99.90;;;;;;4970976;28;20418;-79
2023/10/02 05:47:25;;;;;;;21.17;9.55;;;15.20;99.90;;;;;;4986638;28;20065;-79
2023/10/02 05:49:48;;;;;;;22.23;9.82;;;15.20;99.90;;;;;;4946143;28;20404;-78
2023/10/02 05:52:15;;;;;;;17.92;8.70;;;15.20;99.90;;;;;;4959941;28;20046;-78
2023/10/02 05:54:47;;;;;;;18.52;8.50;;;15.30;99.90;;;;;;4980646;28;20046;-78
2023/10/02 05:57:13;;;;;;;16.50;7.03;;;15.30;99.90;;;;;;4950231;28;20058;-79
2023/10/02 05:59:45;;;;;;;20.08;9.30;;;15.30;99.90;;;;;;4979169;28;20073;-79
2023/10/02 06:02:13;;;;;;;17.75;9.05;;;15.30;99.90;;;;;;4974199;28;20035;-79
2023/10/02 06:04:43;;;;;;;18.45;8.80;;;15.30;99.90;;;;;;4964923;28;20580;-78
2023/10/02 06:07:11;;;;;;;16.45;7.03;;;15.20;99.90;;;;;;4969176;28;20090;-78
2023/10/02 06:09:44;;;;;;;21.10;9.35;;;15.20;99.90;;;;;;4975576;28;20053;-78
2023/10/02 06:12:13;;;;;;;18.90;9.30;;;15.20;99.90;;;;;;4959180;28;20383;-78
2023/10/02 06:14:45;;;;;;;17.55;8.70;;;15.40;99.90;;;;;;4969123;28;20049;-77
2023/10/02 06:17:16;;;;;;;18.38;8.98;;;15.40;99.90;;;;;;4987149;28;20553;-78
2023/10/02 06:19:45;;;;;;;15.70;7.80;;;15.40;99.90;;;;;;4960414;28;20034;-78
2023/10/02 06:22:14;;;;;;;14.57;7.03;;;15.40;99.90;;;;;;4988770;28;20046;-78
2023/10/02 06:24:45;;;;;;;15.90;7.93;;;15.50;99.90;;;;;;4956254;28;20058;-78
2023/10/02 06:27:14;;;;;;;19.40;8.23;;;15.50;99.90;;;;;;4973549;28;20043;-78
2023/10/02 06:29:43;;;;;;;17.15;8.40;;;15.50;99.90;;;;;;4958850;28;20048;-78
2023/10/02 06:32:14;;;;;;;21.02;9.13;;;15.50;99.90;;;;;;4956369;28;20038;-78
2023/10/02 06:34:43;;;;;;;24.40;10.30;;;15.50;99.90;;;;;;4955534;28;20046;-79
2023/10/02 06:37:12;;;;;;;21.88;9.45;;;15.60;99.90;;;;;;4990656;28;20517;-79
2023/10/02 06:39:41;;;;;;;16.00;8.15;;;15.60;99.90;;;;;;4988407;28;20034;-79
2023/10/02 06:42:08;;;;;;;16.85;8.77;;;15.60;99.90;;;;;;4952963;28;20054;-77
2023/10/02 06:44:52;;;;;;;19.83;8.88;;;15.80;99.90;;;;;;4995418;28;20037;-79
2023/10/02 06:47:22;;;;;;;21.85;8.70;;;15.90;99.90;;;;;;4962774;28;20478;-78
2023/10/02 06:49:51;;;;;;;21.90;9.43;;;15.90;99.90;;;;;;4972667;28;20030;-79
2023/10/02 06:52:17;;;;;;;17.90;8.27;;;16.00;99.90;;;;;;4956412;28;20596;-79
2023/10/02 06:54:44;;;;;;;21.92;10.20;;;16.00;99.90;;;;;;4990785;28;20490;-79
2023/10/02 06:57:13;;;;;;;16.85;7.95;;;16.10;99.90;;;;;;4990820;28;20061;-79
2023/10/02 06:59:40;;;;;;;19.65;8.52;;;16.20;99.90;;;;;;4971152;28;20031;-78
2023/10/02 07:02:07;;;;;;;19.80;9.35;;;16.30;99.90;;;;;;4973205;28;20133;-78
2023/10/02 07:04:36;;;;;;;16.75;8.30;;;16.40;99.90;;;;;;4958096;28;20589;-79
2023/10/02 07:07:07;;;;;;;22.58;8.70;;;16.60;99.90;;;;;;4955876;28;20045;-78
2023/10/02 07:09:34;;;;;;;19.73;8.23;;;16.60;99.90;;;;;;4971995;28;20058;-79
2023/10/02 07:12:08;;;;;;;15.90;7.82;;;16.60;99.90;;;;;;4972024;28;20053;-79
2023/10/02 07:14:36;;;;;;;17.13;8.65;;;16.80;99.90;;;;;;4967722;28;20036;-78
2023/10/02 07:17:12;;;;;;;22.25;9.68;;;17.00;99.90;;;;;;4974223;28;20104;-79
2023/10/02 07:19:46;;;;;;;;;;;17.00;99.90;;;;;;4958798;28;20122;-79
2023/10/02 07:22:16;;;;;;;22.02;8.93;;;17.00;99.90;;;;;;4987600;28;19913;-78
2023/10/02 07:24:46;;;;;;;16.80;7.55;;;17.00;99.90;;;;;;4969709;28;20046;-78
2023/10/02 07:27:23;;;;;;;19.90;8.45;;;17.20;99.90;;;;;;4954101;28;20443;-78
2023/10/02 07:29:56;;;;;;;20.20;9.20;;;17.30;99.90;;;;;;4956581;28;20486;-78
2023/10/02 07:32:29;;;;;;;19.50;8.88;;;17.40;99.90;;;;;;4970015;28;20487;-77
2023/10/02 07:34:55;;;;;;;22.30;9.65;;;17.60;99.90;;;;;;4973853;28;20026;-79
2023/10/02 07:37:22;;;;;;;22.25;9.48;;;17.70;99.90;;;;;;4986851;28;20034;-78
2023/10/02 07:39:58;;;;;;;16.45;7.53;;;17.70;99.90;;;;;;4955479;28;20037;-79
2023/10/02 07:42:24;;;;;;;;;;;17.80;99.90;;;;;;4955531;28;20039;-78
2023/10/02 07:44:50;;;;;;;19.38;9.07;;;18.00;99.90;;;;;;4987905;28;20068;-78
2023/10/02 07:47:21;;;;;;;18.10;8.25;;;18.00;99.90;;;;;;4971746;28;20086;-79
2023/10/02 07:49:48;;;;;;;17.88;8.57;;;18.10;99.90;;;;;;4954562;28;20030;-79
2023/10/02 07:52:26;;;;;;;19.33;10.05;;;18.20;99.90;;;;;;4955131;28;20038;-78
2023/10/02 07:54:58;;;;;;;20.23;8.40;;;18.30;99.90;;;;;;4946114;28;20153;-78
2023/10/02 07:57:30;;;;;;;16.35;7.25;;;18.40;99.90;;;;;;4937057;28;20035;-78
2023/10/02 07:59:57;;;;;;;18.58;9.52;;;18.90;99.90;;;;;;4949485;28;20151;-78
2023/10/02 08:02:23;;;;;;;22.08;10.35;;;18.90;99.90;;;;;;4960516;28;20039;-78
2023/10/02 08:04:51;;;;;;;24.42;9.98;;;18.90;99.90;;;;;;4948218;28;20066;-78
2023/10/02 08:07:18;;;;;;;17.20;8.45;;;19.00;99.90;;;;;;4930823;28;20035;-80
2023/10/02 08:09:52;;;;;;;18.05;8.52;;;19.20;99.90;;;;;;4942999;28;20059;-78
2023/10/02 08:12:29;;;;;;;22.17;9.30;;;19.50;99.90;;;;;;4985937;28;20641;-78
2023/10/02 08:15:01;;;;;;;21.48;9.68;;;19.50;99.90;;;;;;4973479;28;20109;-78
2023/10/02 08:20:15;;;;;;;20.88;9.48;;;19.80;99.90;;;;;;4986374;28;20053;-78
2023/10/02 08:22:44;;;;;;;16.45;7.65;;;19.90;99.90;;;;;;4982608;28;20042;-77
2023/10/02 08:25:13;;;;;;;22.30;9.68;;;20.30;99.90;;;;;;4955910;28;20057;-78
2023/10/02 08:27:55;;;;;;;22.08;11.10;;;20.90;99.90;;;;;;4983202;28;20372;-78
2023/10/02 08:30:28;;;;;;;19.70;9.25;;;20.60;99.90;;;;;;4985291;28;20030;-78
2023/10/02 08:33:08;;;;;;;17.30;8.73;;;20.50;99.90;;;;;;4968164;28;20617;-78
2023/10/02 08:35:37;;;;;;;17.58;8.35;;;20.40;99.90;;;;;;4966493;28;20034;-78
2023/10/02 08:38:07;;;;;;;14.18;7.65;;;20.70;99.90;;;;;;4985663;28;20125;-78
2023/10/02 08:40:33;;;;;;;21.77;9.18;;;20.90;99.90;;;;;;4969305;28;20591;-79
2023/10/02 08:42:58;;;;;;;16.70;7.97;;;21.10;99.90;;;;;;4970767;28;20035;-78
2023/10/02 08:45:24;;;;;;;19.73;10.15;;;21.20;99.90;;;;;;4969908;28;20034;-78
2023/10/02 08:47:49;;;;;;;18.17;9.30;;;21.70;99.90;;;;;;4969680;28;20026;-78
2023/10/02 08:50:16;;;;;;;23.60;11.35;;;21.80;99.90;;;;;;4986114;28;20049;-78
2023/10/02 08:52:47;;;;;;;23.00;9.68;;;21.70;99.90;;;;;;4980825;28;20040;-78
2023/10/02 08:55:54;;;;;;;18.42;9.35;;;22.10;99.90;;;;;;4971126;28;20054;-79
2023/10/02 08:58:22;;;;;;;23.60;10.43;;;22.40;99.90;;;;;;4958834;28;20038;-78
2023/10/02 09:03:43;;;;;;;19.13;9.55;;;22.30;99.90;;;;;;4986994;28;20034;-79
2023/10/02 09:11:57;;;;;;;18.35;8.65;;;22.80;99.90;;;;;;4966491;28;20050;-78
2023/10/02 09:17:18;;;;;;;21.52;10.50;;;23.20;99.90;;;;;;4968587;28;20027;-79
2023/10/02 09:19:49;;;;;;;19.00;9.10;;;23.20;99.90;;;;;;4981449;28;20034;-78
2023/10/02 09:22:17;;;;;;;16.15;8.48;;;23.60;99.80;;;;;;4966259;28;20101;-78
2023/10/02 09:24:58;;;;;;;17.58;9.07;;;23.90;99.60;;;;;;4968965;28;20160;-79
2023/10/02 09:27:27;;;;;;;21.83;9.73;;;24.20;98.50;;;;;;4958318;28;20783;-79
2023/10/02 09:30:17;;;;;;;19.02;9.38;;;24.30;98.00;;;;;;4969863;28;20105;-78
2023/10/02 09:32:52;;;;;;;19.25;9.57;;;24.20;98.00;;;;;;4943969;28;20499;-79
2023/10/02 09:35:44;;;;;;;19.45;9.77;;;24.30;97.50;;;;;;4968091;28;20030;-79
2023/10/02 09:38:10;;;;;;;18.65;10.23;;;24.50;97.40;;;;;;4982995;28;20565;-79
2023/10/02 09:41:08;;;;;;;19.90;9.15;;;24.30;97.40;;;;;;4978141;28;20038;-79
2023/10/02 09:43:35;;;;;;;20.23;9.07;;;24.40;97.80;;;;;;4967911;28;20625;-79
2023/10/02 09:46:15;;;;;;;20.17;8.90;;;24.90;95.90;;;;;;4950506;28;20030;-80
2023/10/02 09:49:01;;;;;;;23.38;11.45;;;25.10;96.30;;;;;;4951291;28;20515;-78
2023/10/02 09:51:30;;;;;;;;;;;25.00;95.90;;;;;;4982729;28;20495;-79
2023/10/02 09:54:08;;;;;;;19.08;9.52;;;25.50;94.60;;;;;;4982769;28;20397;-79
2023/10/02 09:57:04;;;;;;;19.85;9.65;;;25.60;94.80;;;;;;4967132;28;20443;-80
2023/10/02 09:59:37;;;;;;;20.20;9.35;;;25.60;95.00;;;;;;4959981;28;20034;-79
2023/10/02 10:02:08;;;;;;;24.88;10.65;;;25.80;94.20;;;;;;4961297;28;20100;-79
2023/10/02 10:13:34;;;;;;;19.92;9.90;;;26.60;92.60;;;;;;4970658;28;20036;-80
2023/10/02 10:16:20;;;;;;;20.42;10.57;;;26.60;92.60;;;;;;4984675;28;20044;-81
2023/10/02 10:21:57;;;;;;;23.27;11.73;;;26.60;92.20;;;;;;4987212;28;20042;-80
2023/10/02 10:24:55;;;;;;;21.17;9.55;;;26.80;91.50;;;;;;4969345;28;20037;-81
2023/10/02 10:27:39;;;;;;;23.17;11.63;;;27.20;90.40;;;;;;4970943;28;20041;-80
2023/10/02 10:30:33;;;;;;;20.88;10.32;;;27.20;90.40;;;;;;4983840;28;20066;-81
2023/10/02 10:33:26;;;;;;;19.15;10.38;;;27.20;90.60;;;;;;4983743;28;20119;-81
2023/10/02 10:35:52;;;;;;;22.55;10.43;;;27.10;91.60;;;;;;4959539;28;20395;-81
2023/10/02 10:38:28;;;;;;;18.80;9.35;;;27.10;90.60;;;;;;4975493;28;20057;-81
2023/10/02 10:41:06;;;;;;;18.92;10.30;;;27.70;90.00;;;;;;4984098;28;20030;-81
2023/10/02 10:43:44;;;;;;;24.05;11.35;;;27.60;89.90;;;;;;4971749;28;20031;-81
2023/10/02 10:46:32;;;;;;;19.40;9.70;;;27.50;90.30;;;;;;4987112;28;20056;-81
2023/10/02 10:49:08;;;;;;;25.25;11.38;;;27.50;90.00;;;;;;4967930;28;20101;-81
2023/10/02 10:51:37;;;;;;;22.92;10.57;;;27.90;88.70;;;;;;4968708;28;20038;-82
2023/10/02 10:54:13;;;;;;;21.48;9.68;;;27.70;87.50;;;;;;4951775;28;20034;-81
2023/10/02 10:56:44;;;;;;;22.35;10.05;;;28.30;86.30;;;;;;4966921;28;20034;-81
2023/10/02 10:59:11;;;;;;;18.08;9.52;;;28.10;86.20;;;;;;4962408;28;20034;-81
2023/10/02 11:01:37;;;;;;;21.85;11.23;;;28.30;86.60;;;;;;4972499;28;20502;-81
2023/10/02 11:04:03;;;;;;;21.27;10.73;;;28.30;86.70;;;;;;4970591;28;20046;-81
2023/10/02 11:06:29;;;;;;;20.00;11.60;;;27.70;90.00;;;;;;4973577;28;20030;-81
2023/10/02 11:09:11;;;;;;;23.55;12.25;;;28.00;89.10;;;;;;4973425;28;20491;-82
2023/10/02 11:11:50;;;;;;;20.92;10.98;;;28.20;88.00;;;;;;4988249;28;20754;-82
2023/10/02 11:14:22;;;;;;;23.67;12.25;;;28.50;86.40;;;;;;4971405;28;20034;-82
2023/10/02 11:16:51;;;;;;;18.33;11.00;;;28.70;86.70;;;;;;4952321;28;20058;-82
2023/10/02 11:19:25;;;;;;;23.50;11.50;;;28.90;86.60;;;;;;4956296;28;20040;-81
2023/10/02 11:22:19;;;;;;;18.45;10.27;;;29.10;86.40;;;;;;4968901;28;20128;-82
2023/10/02 11:24:52;;;;;;;22.40;10.52;;;28.70;88.10;;;;;;4972427;28;20697;-81
2023/10/02 11:27:18;;;;;;;20.08;9.80;;;28.90;87.10;;;;;;4986958;28;20607;-81
2023/10/02 11:30:08;;;;;;;20.73;10.38;;;29.20;84.30;;;;;;4971367;28;20041;-81
2023/10/02 11:32:45;;;;;;;19.58;10.05;;;29.40;85.10;;;;;;4987421;28;20098;-81
2023/10/02 11:35:11;;;;;;;21.45;11.70;;;29.00;87.00;;;;;;4989466;28;20026;-81
2023/10/02 11:37:44;;;;;;;20.55;9.73;;;29.30;84.90;;;;;;4988766;28;20403;-81
2023/10/02 11:40:10;;;;;;;23.10;11.15;;;29.30;85.70;;;;;;4973059;28;20068;-81
2023/10/02 11:42:36;;;;;;;20.48;10.85;;;29.60;82.60;;;;;;4976579;28;20049;-81
2023/10/02 11:45:02;;;;;;;19.48;10.13;;;29.70;81.60;;;;;;4991478;28;20037;-81
2023/10/02 11:47:28;;;;;;;19.95;10.70;;;29.70;82.80;;;;;;4985893;28;20031;-81
2023/10/02 11:49:57;;;;;;;20.67;10.07;;;29.70;82.40;;;;;;4971744;28;21064;-81
2023/10/02 11:52:22;;;;;;;18.05;9.98;;;29.50;85.00;;;;;;4957885;28;20065;-82
2023/10/02 11:54:48;;;;;;;17.63;10.50;;;29.30;86.80;;;;;;4951335;28;20382;-81
2023/10/02 11:57:14;;;;;;;19.35;10.27;;;29.30;84.70;;;;;;4956139;28;20502;-82
2023/10/02 11:59:41;;;;;;;18.45;9.50;;;29.60;84.30;;;;;;4958664;28;20443;-81
2023/10/02 12:02:11;;;;;;;22.27;10.40;;;29.40;83.90;;;;;;4970408;28;20042;-82
2023/10/02 12:04:37;;;;;;;19.73;9.68;;;29.80;82.90;;;;;;4954681;28;20422;-81
2023/10/02 12:07:03;;;;;;;22.30;10.00;;;29.80;85.20;;;;;;4972871;28;20034;-81
2023/10/02 12:09:29;;;;;;;21.23;10.85;;;29.80;82.00;;;;;;4988003;28;20057;-81
2023/10/02 12:11:57;;;;;;;21.20;10.77;;;30.10;83.40;;;;;;4988394;28;20038;-81
2023/10/02 12:14:25;;;;;;;16.40;9.77;;;30.30;80.40;;;;;;4972012;28;20434;-81
2023/10/02 12:16:52;;;;;;;18.50;10.65;;;30.60;80.50;;;;;;4970940;28;20061;-81
2023/10/02 12:19:17;;;;;;;20.02;10.32;;;30.70;79.60;;;;;;4989521;28;20039;-81
2023/10/02 12:21:43;;;;;;;19.42;10.82;;;30.80;80.00;;;;;;4988279;28;20044;-81
2023/10/02 12:24:09;;;;;;;21.30;10.63;;;30.80;79.50;;;;;;4971544;28;20113;-81
2023/10/02 12:26:34;;;;;;;17.98;9.60;;;30.80;79.20;;;;;;4971751;28;20029;-82
2023/10/02 12:29:03;;;;;;;21.30;10.70;;;30.80;81.40;;;;;;4955666;28;20030;-81
2023/10/02 12:31:30;;;;;;;21.50;9.95;;;31.00;83.30;;;;;;4970769;28;20414;-82
2023/10/02 12:33:56;;;;;;;16.15;10.02;;;30.70;81.20;;;;;;4984265;28;20121;-82
2023/10/02 12:36:22;;;;;;;17.38;9.77;;;30.80;83.20;;;;;;4970304;28;20034;-81
2023/10/02 12:38:50;;;;;;;18.67;9.65;;;31.10;79.90;;;;;;4969122;28;20026;-81
2023/10/02 12:41:22;;;;;;;18.35;9.57;;;31.20;79.10;;;;;;4988334;28;20034;-81
2023/10/02 12:43:56;;;;;;;19.55;9.88;;;31.10;79.50;;;;;;4952147;28;20037;-81
2023/10/02 12:46:27;;;;;;;20.63;11.15;;;31.10;77.60;;;;;;4971674;28;20097;-81
2023/10/02 12:48:55;;;;;;;20.55;10.85;;;31.10;76.90;;;;;;4969946;28;20092;-81
2023/10/02 12:51:20;;;;;;;20.65;10.05;;;31.00;78.50;;;;;;4951782;28;20088;-80
2023/10/02 12:53:46;;;;;;;17.40;9.32;;;31.10;77.00;;;;;;4959440;28;20041;-82
2023/10/02 12:56:15;;;;;;;20.00;10.10;;;30.90;82.10;;;;;;4953906;28;20412;-82
2023/10/02 12:58:41;;;;;;;15.02;8.93;;;30.90;80.50;;;;;;4985446;28;20799;-81
2023/10/02 13:01:06;;;;;;;17.15;9.32;;;30.90;77.50;;;;;;4963297;28;20128;-82
2023/10/02 13:03:32;;;;;;;17.10;9.90;;;31.00;78.30;;;;;;4967607;28;20418;-82
2023/10/02 13:05:59;;;;;;;18.30;10.05;;;31.00;76.90;;;;;;4950080;28;20027;-83
2023/10/02 13:08:26;;;;;;;23.60;10.45;;;31.10;77.70;;;;;;4969840;28;20030;-82
2023/10/02 13:10:52;;;;;;;19.75;9.88;;;31.10;78.30;;;;;;4969678;28;20076;-83
2023/10/02 13:13:18;;;;;;;17.50;9.90;;;31.10;76.40;;;;;;4953663;28;20380;-82
2023/10/02 13:15:43;;;;;;;19.38;9.93;;;31.00;75.30;;;;;;4954859;28;20029;-82
2023/10/02 13:18:09;;;;;;;15.35;9.15;;;31.00;77.10;;;;;;4968726;28;20439;-82
2023/10/02 13:20:36;;;;;;;20.20;10.73;;;31.10;77.40;;;;;;4987525;28;20118;-81
2023/10/02 13:23:02;;;;;;;17.60;8.93;;;30.90;78.20;;;;;;4969519;28;20038;-81
2023/10/02 13:25:27;;;;;;;16.05;8.30;;;30.90;77.00;;;;;;4953668;28;20045;-82
2023/10/02 13:27:53;;;;;;;15.07;8.48;;;30.90;76.40;;;;;;4982305;28;20023;-83
2023/10/02 13:30:25;;;;;;;16.10;8.90;;;30.90;77.80;;;;;;4965451;28;20026;-83
2023/10/02 13:32:51;;;;;;;18.92;8.88;;;30.80;77.10;;;;;;4969227;28;20224;-82
2023/10/02 13:35:17;;;;;;;17.65;9.98;;;30.80;75.80;;;;;;4981731;28;20209;-81
2023/10/02 13:37:43;;;;;;;18.35;9.00;;;30.80;76.40;;;;;;4982878;28;20527;-83
2023/10/02 13:40:31;;;;;;;17.75;8.88;;;30.60;76.60;;;;;;4953356;28;20092;-84
2023/10/02 13:42:57;;;;;;;14.75;8.50;;;30.60;77.40;;;;;;4982262;28;20449;-83
2023/10/02 13:45:24;;;;;;;18.38;9.07;;;30.60;78.40;;;;;;4984322;28;20042;-84
2023/10/02 13:47:50;;;;;;;15.40;8.55;;;30.70;85.00;;;;;;4969940;28;20030;-84